createdAt,value
2023-05-12T00:02:38.450Z,13.42
2023-05-12T00:05:29.573Z,13.40
2023-05-12T00:08:19.100Z,13.36
2023-05-12T00:11:09.770Z,13.31
2023-05-12T00:13:59.255Z,13.30
2023-05-12T00:16:51.816Z,13.26
2023-05-12T00:19:43.977Z,13.21
2023-05-12T00:22:33.220Z,13.14
2023-05-12T00:25:22.578Z,13.13
2023-05-12T00:28:13.135Z,13.04
2023-05-12T00:31:04.848Z,12.99
2023-05-12T00:33:54.171Z,13.09
2023-05-12T00:36:43.394Z,13.05
2023-05-12T00:39:32.753Z,12.94
2023-05-12T00:42:22.214Z,13.00
2023-05-12T00:45:13.931Z,12.99
2023-05-12T00:48:03.583Z,13.00
2023-05-12T00:50:53.057Z,13.03
2023-05-12T00:53:49.677Z,13.03
2023-05-12T00:56:40.432Z,13.01
2023-05-12T00:59:30.882Z,13.02
2023-05-12T01:02:22.180Z,12.95
2023-05-12T01:05:13.473Z,12.95
2023-05-12T01:08:04.564Z,12.99
2023-05-12T01:10:54.280Z,12.95
2023-05-12T01:13:43.670Z,12.86
2023-05-12T01:16:40.750Z,12.77
2023-05-12T01:19:42.769Z,12.83
2023-05-12T01:22:34.147Z,12.82
2023-05-12T01:25:25.733Z,12.73
2023-05-12T01:28:18.106Z,12.75
2023-05-12T01:31:09.607Z,12.72
2023-05-12T01:34:00.955Z,12.71
2023-05-12T01:36:51.034Z,12.69
2023-05-12T01:39:40.387Z,12.69
2023-05-12T01:42:31.879Z,12.70
2023-05-12T01:45:22.997Z,12.70
2023-05-12T01:48:14.543Z,12.69
2023-05-12T01:51:08.551Z,12.63
2023-05-12T01:53:57.838Z,12.59
2023-05-12T01:56:49.596Z,12.56
2023-05-12T01:59:38.899Z,12.40
2023-05-12T02:02:31.809Z,12.48
2023-05-12T02:05:22.295Z,12.49
2023-05-12T02:08:12.576Z,12.48
2023-05-12T02:11:08.535Z,12.44
2023-05-12T02:13:58.691Z,12.47
2023-05-12T02:16:52.710Z,12.42
2023-05-12T02:19:44.893Z,12.43
2023-05-12T02:22:36.049Z,12.41
2023-05-12T02:25:25.443Z,12.43
2023-05-12T02:28:14.816Z,12.42
2023-05-12T02:31:04.280Z,12.39
2023-05-12T02:33:54.606Z,12.33
2023-05-12T02:36:46.433Z,12.30
2023-05-12T02:39:35.720Z,12.28
2023-05-12T02:42:24.995Z,12.25
2023-05-12T02:45:14.764Z,12.22
2023-05-12T02:48:04.257Z,12.15
2023-05-12T02:50:53.432Z,12.20
2023-05-12T02:53:44.232Z,12.16
2023-05-12T02:56:34.116Z,12.16
2023-05-12T02:59:23.660Z,12.08
2023-05-12T03:02:13.239Z,12.11
2023-05-12T03:05:02.613Z,12.06
2023-05-12T03:07:51.961Z,12.03
2023-05-12T03:10:44.105Z,12.01
2023-05-12T03:13:33.558Z,12.07
2023-05-12T03:16:23.015Z,12.08
2023-05-12T03:19:12.535Z,12.01
2023-05-12T03:22:02.089Z,12.00
2023-05-12T03:24:51.927Z,11.94
2023-05-12T03:27:42.784Z,11.92
2023-05-12T03:30:33.225Z,11.91
2023-05-12T03:33:22.628Z,11.89
2023-05-12T03:36:13.329Z,11.89
2023-05-12T03:39:03.212Z,11.87
2023-05-12T03:41:52.563Z,11.84
2023-05-12T03:44:43.898Z,11.84
2023-05-12T03:47:34.804Z,11.86
2023-05-12T03:50:24.255Z,11.79
2023-05-12T03:53:13.519Z,11.86
2023-05-12T03:56:06.641Z,11.75
2023-05-12T03:58:55.803Z,11.83
2023-05-12T04:01:46.636Z,11.84
2023-05-12T04:04:36.872Z,11.86
2023-05-12T04:07:26.506Z,11.82
2023-05-12T04:10:15.869Z,11.75
2023-05-12T04:13:05.578Z,11.74
2023-05-12T04:15:57.930Z,11.73
2023-05-12T04:18:49.522Z,11.69
2023-05-12T04:21:38.945Z,11.69
2023-05-12T04:24:28.435Z,11.70
2023-05-12T04:27:17.913Z,11.65
2023-05-12T04:30:09.632Z,11.66
2023-05-12T04:33:01.724Z,11.64
2023-05-12T04:35:57.753Z,11.61
2023-05-12T04:38:47.743Z,11.61
2023-05-12T04:41:37.499Z,11.60
2023-05-12T04:44:26.860Z,11.59
2023-05-12T04:47:16.595Z,11.63
2023-05-12T04:50:06.873Z,11.62
2023-05-12T04:52:57.676Z,11.60
2023-05-12T04:55:47.224Z,11.57
2023-05-12T04:58:38.490Z,11.60
2023-05-12T05:01:28.825Z,11.60
2023-05-12T05:04:18.908Z,11.56
2023-05-12T05:07:09.198Z,11.57
2023-05-12T05:10:00.404Z,11.56
2023-05-12T05:12:50.841Z,11.57
2023-05-12T05:15:53.151Z,11.55
2023-05-12T05:18:49.510Z,11.56
2023-05-12T05:21:38.956Z,11.59
2023-05-12T05:24:28.241Z,11.61
2023-05-12T05:27:21.490Z,11.61
2023-05-12T05:30:12.060Z,11.68
2023-05-12T05:33:03.037Z,11.69
2023-05-12T05:35:52.598Z,11.73
2023-05-12T05:38:42.077Z,11.75
2023-05-12T05:41:31.804Z,11.78
2023-05-12T05:44:22.900Z,11.79
2023-05-12T05:47:12.631Z,11.84
2023-05-12T05:50:02.115Z,11.92
2023-05-12T05:52:54.767Z,11.99
2023-05-12T05:55:45.340Z,12.04
2023-05-12T05:58:34.898Z,12.13
2023-05-12T06:01:27.713Z,12.28
2023-05-12T06:04:17.157Z,12.43
2023-05-12T06:07:06.914Z,12.57
2023-05-12T06:09:56.475Z,12.74
2023-05-12T06:12:45.985Z,12.82
2023-05-12T06:15:35.884Z,12.95
2023-05-12T06:18:26.551Z,13.01
2023-05-12T06:21:15.977Z,13.18
2023-05-12T06:24:08.914Z,13.20
2023-05-12T06:26:58.526Z,13.24
2023-05-12T06:29:47.867Z,13.26
2023-05-12T06:32:37.387Z,13.31
2023-05-12T06:35:29.605Z,13.42
2023-05-12T06:38:18.811Z,13.53
2023-05-12T06:41:09.343Z,13.60
2023-05-12T06:44:00.392Z,13.55
2023-05-12T06:46:50.225Z,13.68
2023-05-12T06:49:39.591Z,13.80
2023-05-12T06:52:30.282Z,13.90
2023-05-12T06:55:20.846Z,13.98
2023-05-12T06:58:10.452Z,14.04
2023-05-12T07:00:59.642Z,14.12
2023-05-12T07:03:48.940Z,14.22
2023-05-12T07:06:38.156Z,14.25
2023-05-12T07:09:28.868Z,14.36
2023-05-12T07:12:18.172Z,14.38
2023-05-12T07:15:09.762Z,14.45
2023-05-12T07:17:58.957Z,14.51
2023-05-12T07:20:49.178Z,14.58
2023-05-12T07:23:39.198Z,14.64
2023-05-12T07:26:30.449Z,14.78
2023-05-12T07:29:19.788Z,14.88
2023-05-12T07:32:09.259Z,14.83
2023-05-12T07:34:58.624Z,15.04
2023-05-12T07:37:47.910Z,15.01
2023-05-12T07:40:37.197Z,15.02
2023-05-12T07:43:27.936Z,14.93
2023-05-12T07:46:17.227Z,15.06
2023-05-12T07:49:07.449Z,15.19
2023-05-12T07:51:57.174Z,15.20
2023-05-12T07:54:46.607Z,15.23
2023-05-12T07:57:35.844Z,15.35
2023-05-12T08:00:26.800Z,15.41
2023-05-12T08:03:16.468Z,15.46
2023-05-12T08:06:07.420Z,15.47
2023-05-12T08:08:58.477Z,15.53
2023-05-12T08:11:50.012Z,15.56
2023-05-12T08:14:40.795Z,15.61
2023-05-12T08:17:31.473Z,15.68
2023-05-12T08:20:20.877Z,15.77
2023-05-12T08:23:10.338Z,15.87
2023-05-12T08:25:59.555Z,15.97
2023-05-12T08:28:48.771Z,16.01
2023-05-12T08:31:40.127Z,16.06
2023-05-12T08:34:33.972Z,16.14
2023-05-12T08:37:23.379Z,16.20
2023-05-12T08:40:19.959Z,16.11
2023-05-12T08:43:14.752Z,16.12
2023-05-12T08:46:04.127Z,16.13
2023-05-12T08:48:55.214Z,16.08
2023-05-12T08:51:56.823Z,15.74
2023-05-12T08:54:55.404Z,16.01
2023-05-12T08:57:48.515Z,15.99
2023-05-12T09:00:39.975Z,15.87
2023-05-12T09:03:29.665Z,15.86
2023-05-12T09:06:19.652Z,15.87
2023-05-12T09:09:10.598Z,15.85
2023-05-12T09:12:02.942Z,15.89
2023-05-12T09:15:02.072Z,15.84
2023-05-12T09:17:51.373Z,15.84
2023-05-12T09:20:40.767Z,15.73
2023-05-12T09:23:29.950Z,15.87
2023-05-12T09:26:20.964Z,15.88
2023-05-12T09:29:12.075Z,15.94
2023-05-12T09:32:05.905Z,15.95
2023-05-12T09:34:55.181Z,15.99
2023-05-12T09:37:44.512Z,15.94
2023-05-12T09:40:33.898Z,16.05
2023-05-12T09:43:24.562Z,16.04
2023-05-12T09:46:14.690Z,16.06
2023-05-12T09:49:04.498Z,16.19
2023-05-12T09:51:54.713Z,16.11
2023-05-12T09:54:43.990Z,16.21
2023-05-12T09:57:34.188Z,16.26
2023-05-12T10:00:38.682Z,16.35
2023-05-12T10:03:36.309Z,16.43
2023-05-12T10:06:29.421Z,16.56
2023-05-12T10:09:21.871Z,16.66
2023-05-12T10:12:11.884Z,16.74
2023-05-12T10:15:01.793Z,16.75
2023-05-12T10:17:54.096Z,16.81
2023-05-12T10:20:46.433Z,16.87
2023-05-12T10:23:38.316Z,17.00
2023-05-12T10:26:28.404Z,17.00
2023-05-12T10:29:18.323Z,16.94
2023-05-12T10:32:07.640Z,17.08
2023-05-12T10:35:09.223Z,16.95
2023-05-12T10:38:02.493Z,17.01
2023-05-12T10:40:55.922Z,17.02
2023-05-12T10:43:50.642Z,17.15
2023-05-12T10:46:40.049Z,17.17
2023-05-12T10:49:37.683Z,17.15
2023-05-12T10:52:28.576Z,17.32
2023-05-12T10:55:18.040Z,17.33
2023-05-12T10:58:12.970Z,17.32
2023-05-12T11:01:08.142Z,17.39
2023-05-12T11:04:10.617Z,17.43
2023-05-12T11:07:01.384Z,17.62
2023-05-12T11:09:57.526Z,17.76
2023-05-12T11:12:49.023Z,17.91
2023-05-12T11:15:38.787Z,17.82
2023-05-12T11:18:28.306Z,17.70
2023-05-12T11:21:17.525Z,17.62
2023-05-12T11:24:07.583Z,17.65
2023-05-12T11:26:58.431Z,17.70
2023-05-12T11:29:58.989Z,17.75
2023-05-12T11:32:48.676Z,18.01
2023-05-12T11:35:38.085Z,18.32
2023-05-12T11:38:28.437Z,18.73
2023-05-12T11:41:25.181Z,18.90
2023-05-12T11:44:18.799Z,19.59
2023-05-12T11:47:14.713Z,19.95
2023-05-12T11:50:06.430Z,20.08
2023-05-12T11:52:55.710Z,20.12
2023-05-12T11:55:52.410Z,20.17
2023-05-12T11:58:52.984Z,20.32
2023-05-12T12:01:48.044Z,20.48
2023-05-12T12:04:41.924Z,20.72
2023-05-12T12:07:32.683Z,20.68
2023-05-12T12:10:22.282Z,20.88
2023-05-12T12:13:12.197Z,20.98
2023-05-12T12:16:01.480Z,20.92
2023-05-12T12:18:52.447Z,20.76
2023-05-12T12:21:42.786Z,20.82
2023-05-12T12:24:32.043Z,21.25
2023-05-12T12:27:21.295Z,21.45
2023-05-12T12:30:12.133Z,21.77
2023-05-12T12:33:01.605Z,22.29
2023-05-12T12:35:52.630Z,22.47
2023-05-12T12:38:42.283Z,22.86
2023-05-12T12:41:32.851Z,23.39
2023-05-12T12:44:22.477Z,23.84
2023-05-12T12:47:11.939Z,24.36
2023-05-12T12:50:01.724Z,24.81
2023-05-12T12:52:52.734Z,24.94
2023-05-12T12:55:42.031Z,24.88
2023-05-12T12:58:31.380Z,24.71
2023-05-12T13:01:20.692Z,24.76
2023-05-12T13:04:09.986Z,24.57
2023-05-12T13:06:59.499Z,24.60
2023-05-12T13:09:50.354Z,24.67
2023-05-12T13:12:39.761Z,24.84
2023-05-12T13:15:29.567Z,25.10
2023-05-12T13:18:18.901Z,25.46
2023-05-12T13:21:08.348Z,25.78
2023-05-12T13:23:57.690Z,25.86
2023-05-12T13:26:48.330Z,25.97
2023-05-12T13:29:37.698Z,25.66
2023-05-12T13:32:27.076Z,25.40
2023-05-12T13:35:16.357Z,25.47
2023-05-12T13:38:05.669Z,25.61
2023-05-12T13:40:54.997Z,25.60
2023-05-12T13:43:45.781Z,25.74
2023-05-12T13:46:35.666Z,25.60
2023-05-12T13:49:25.009Z,25.39
2023-05-12T13:52:15.042Z,25.07
2023-05-12T13:55:04.512Z,24.85
2023-05-12T13:57:53.870Z,24.53
2023-05-12T14:00:45.097Z,23.87
2023-05-12T14:03:34.731Z,23.79
2023-05-12T14:06:24.078Z,23.62
2023-05-12T14:09:14.351Z,23.96
2023-05-12T14:12:04.462Z,24.03
2023-05-12T14:14:54.733Z,23.79
2023-05-12T14:17:48.944Z,23.86
2023-05-12T14:20:38.325Z,23.96
2023-05-12T14:23:27.820Z,24.02
2023-05-12T14:26:17.240Z,24.34
2023-05-12T14:29:08.694Z,24.53
2023-05-12T14:31:58.346Z,24.56
2023-05-12T14:34:49.047Z,24.61
2023-05-12T14:37:38.532Z,24.92
2023-05-12T14:40:28.093Z,25.20
2023-05-12T14:43:17.663Z,25.51
2023-05-12T14:46:08.731Z,25.62
2023-05-12T14:48:57.995Z,25.46
2023-05-12T14:51:49.627Z,25.53
2023-05-12T14:54:38.907Z,25.52
2023-05-12T14:57:28.326Z,25.41
2023-05-12T15:00:18.504Z,25.33
2023-05-12T15:03:07.998Z,25.16
2023-05-12T15:06:06.648Z,24.88
2023-05-12T15:08:58.242Z,24.65
2023-05-12T15:11:48.173Z,24.52
2023-05-12T15:14:37.793Z,24.34
2023-05-12T15:17:28.282Z,24.17
2023-05-12T15:20:17.747Z,23.99
2023-05-12T15:23:07.107Z,23.87
2023-05-12T15:25:59.391Z,23.83
2023-05-12T15:28:48.958Z,23.76
2023-05-12T15:31:38.719Z,23.69
2023-05-12T15:34:28.162Z,23.70
2023-05-12T15:37:17.590Z,23.71
2023-05-12T15:40:08.783Z,23.73
2023-05-12T15:42:59.439Z,23.62
2023-05-12T15:45:48.662Z,23.60
2023-05-12T15:48:37.944Z,23.62
2023-05-12T15:51:28.481Z,23.50
2023-05-12T15:54:18.535Z,23.30
2023-05-12T15:57:08.573Z,23.08
2023-05-12T16:00:02.554Z,23.11
2023-05-12T16:03:02.852Z,23.02
2023-05-12T16:05:52.480Z,22.86
2023-05-12T16:08:41.660Z,22.52
2023-05-12T16:11:31.024Z,22.27
2023-05-12T16:14:21.976Z,21.94
2023-05-12T16:17:12.720Z,21.55
2023-05-12T16:20:02.173Z,21.15
2023-05-12T16:22:53.443Z,20.99
2023-05-12T16:25:43.198Z,20.75
2023-05-12T16:28:34.581Z,20.64
2023-05-12T16:31:24.358Z,20.44
2023-05-12T16:34:15.004Z,20.34
2023-05-12T16:37:04.569Z,20.32
2023-05-12T16:39:53.793Z,20.21
2023-05-12T16:42:43.087Z,20.18
2023-05-12T16:45:33.061Z,19.92
2023-05-12T16:48:22.457Z,20.04
2023-05-12T16:51:13.104Z,20.02
2023-05-12T16:54:02.489Z,20.12
2023-05-12T16:56:51.893Z,20.10
2023-05-12T16:59:41.282Z,19.99
2023-05-12T17:02:30.910Z,19.93
2023-05-12T17:05:21.415Z,19.93
2023-05-12T17:08:12.570Z,19.99
2023-05-12T17:11:01.786Z,20.02
2023-05-12T17:13:51.218Z,20.01
2023-05-12T17:16:40.866Z,19.94
2023-05-12T17:19:30.411Z,19.83
2023-05-12T17:22:19.747Z,19.89
2023-05-12T17:25:11.984Z,19.78
2023-05-12T17:28:01.288Z,19.81
2023-05-12T17:30:50.548Z,19.83
2023-05-12T17:33:39.825Z,19.84
2023-05-12T17:36:29.078Z,19.90
2023-05-12T17:39:18.364Z,19.92
2023-05-12T17:42:09.506Z,19.95
2023-05-12T17:44:59.115Z,19.95
2023-05-12T17:47:50.481Z,19.93
2023-05-12T17:50:40.549Z,19.99
2023-05-12T17:53:29.941Z,19.97
2023-05-12T17:56:19.330Z,19.96
2023-05-12T17:59:10.113Z,19.92
2023-05-12T18:01:59.571Z,20.01
2023-05-12T18:04:49.332Z,20.03
2023-05-12T18:07:38.796Z,20.03
2023-05-12T18:10:28.917Z,19.98
2023-05-12T18:13:18.212Z,19.87
2023-05-12T18:16:25.037Z,19.76
2023-05-12T18:19:17.756Z,19.77
2023-05-12T18:22:07.403Z,19.65
2023-05-12T18:24:56.745Z,19.61
2023-05-12T18:27:46.497Z,19.59
2023-05-12T18:30:35.912Z,19.50
2023-05-12T18:33:26.887Z,19.41
2023-05-12T18:36:16.447Z,19.37
2023-05-12T18:39:06.874Z,19.39
2023-05-12T18:41:56.495Z,19.38
2023-05-12T18:44:45.807Z,19.39
2023-05-12T18:47:35.323Z,19.34
2023-05-12T18:50:26.163Z,19.30
2023-05-12T18:53:15.674Z,19.20
2023-05-12T18:56:05.516Z,18.99
2023-05-12T18:58:54.811Z,18.94
2023-05-12T19:01:44.479Z,18.91
2023-05-12T19:04:34.054Z,18.86
2023-05-12T19:07:25.068Z,18.84
2023-05-12T19:10:14.562Z,18.72
2023-05-12T19:13:04.044Z,18.64
2023-05-12T19:15:53.332Z,18.56
2023-05-12T19:18:42.685Z,18.43
2023-05-12T19:21:33.679Z,18.28
2023-05-12T19:24:27.303Z,18.12
2023-05-12T19:27:16.703Z,18.03
2023-05-12T19:30:07.361Z,18.04
2023-05-12T19:32:56.927Z,17.80
2023-05-12T19:35:46.408Z,17.83
2023-05-12T19:38:35.921Z,17.77
2023-05-12T19:41:27.653Z,17.74
2023-05-12T19:44:17.950Z,17.65
2023-05-12T19:47:08.774Z,17.55
2023-05-12T19:49:58.121Z,17.35
2023-05-12T19:52:47.576Z,17.38
2023-05-12T19:55:37.177Z,17.33
2023-05-12T19:58:27.885Z,17.25
2023-05-12T20:01:17.212Z,17.24
2023-05-12T20:04:06.685Z,17.20
2023-05-12T20:06:56.043Z,17.14
2023-05-12T20:09:45.986Z,17.11
2023-05-12T20:12:35.194Z,17.09
2023-05-12T20:15:26.006Z,16.98
2023-05-12T20:18:15.817Z,17.01
2023-05-12T20:21:05.245Z,16.94
2023-05-12T20:23:54.580Z,16.87
2023-05-12T20:26:44.017Z,16.81
2023-05-12T20:29:33.399Z,16.76
2023-05-12T20:32:24.186Z,16.62
2023-05-12T20:35:13.647Z,16.67
2023-05-12T20:38:03.471Z,16.54
2023-05-12T20:40:53.199Z,16.56
2023-05-12T20:43:42.542Z,16.52
2023-05-12T20:46:32.821Z,16.47
2023-05-12T20:49:24.790Z,16.50
2023-05-12T20:52:14.602Z,16.43
2023-05-12T20:55:11.153Z,16.40
2023-05-12T20:58:00.497Z,16.37
2023-05-12T21:00:49.731Z,16.37
2023-05-12T21:03:41.005Z,16.35
2023-05-12T21:06:32.993Z,16.33
2023-05-12T21:09:22.271Z,16.30
2023-05-12T21:12:12.034Z,16.22
2023-05-12T21:15:01.945Z,16.20
2023-05-12T21:17:51.552Z,16.15
2023-05-12T21:20:40.948Z,16.11
2023-05-12T21:23:31.603Z,16.08
2023-05-12T21:26:21.444Z,16.04
2023-05-12T21:29:11.000Z,16.00
2023-05-12T21:32:00.536Z,15.95
2023-05-12T21:34:50.313Z,15.83
2023-05-12T21:37:39.670Z,15.85
2023-05-12T21:40:30.728Z,15.83
2023-05-12T21:43:20.142Z,15.79
2023-05-12T21:46:09.582Z,15.74
2023-05-12T21:48:58.892Z,15.76
2023-05-12T21:51:48.160Z,15.72
2023-05-12T21:54:38.513Z,15.59
2023-05-12T21:57:29.319Z,15.62
2023-05-12T22:00:20.293Z,15.58
2023-05-12T22:03:12.137Z,15.52
2023-05-12T22:06:01.904Z,15.46
2023-05-12T22:08:53.450Z,15.42
2023-05-12T22:11:46.980Z,15.43
2023-05-12T22:14:39.107Z,15.42
2023-05-12T22:17:28.475Z,15.40
2023-05-12T22:20:19.256Z,15.38
2023-05-12T22:23:08.912Z,15.34
2023-05-12T22:25:58.192Z,15.25
2023-05-12T22:28:47.432Z,15.23
2023-05-12T22:31:38.103Z,15.13
2023-05-12T22:34:27.397Z,15.03
2023-05-12T22:37:17.088Z,14.95
2023-05-12T22:40:10.105Z,15.02
2023-05-12T22:42:59.271Z,15.05
2023-05-12T22:45:52.549Z,14.98
2023-05-12T22:48:43.560Z,14.95
2023-05-12T22:51:33.274Z,15.00
2023-05-12T22:54:22.638Z,14.97
2023-05-12T22:57:12.377Z,14.94
2023-05-12T23:00:03.764Z,14.95
2023-05-12T23:02:53.329Z,14.90
2023-05-12T23:05:43.974Z,14.89
2023-05-12T23:08:33.200Z,14.90
2023-05-12T23:11:22.655Z,14.87
2023-05-12T23:14:12.760Z,14.90
2023-05-12T23:17:02.297Z,14.82
2023-05-12T23:19:52.286Z,14.75
2023-05-12T23:22:43.055Z,14.66
2023-05-12T23:25:32.312Z,14.68
2023-05-12T23:28:21.708Z,14.58
2023-05-12T23:31:11.067Z,14.64
2023-05-12T23:34:01.109Z,14.62
2023-05-12T23:36:50.417Z,14.63
2023-05-12T23:39:41.525Z,14.62
2023-05-12T23:42:30.744Z,14.62
2023-05-12T23:45:19.958Z,14.61
2023-05-12T23:48:09.309Z,14.55
2023-05-12T23:50:58.587Z,14.50
2023-05-12T23:53:48.176Z,14.45
2023-05-12T23:56:38.838Z,14.40
2023-05-12T23:59:28.209Z,14.48
